createdAt,value
2022-12-08T00:01:25.798Z,5.22
2022-12-08T00:03:54.636Z,5.50
2022-12-08T00:06:51.692Z,5.63
2022-12-08T00:09:43.951Z,5.80
2022-12-08T00:12:15.405Z,5.60
2022-12-08T00:14:47.669Z,5.70
2022-12-08T00:17:16.798Z,5.65
2022-12-08T00:19:44.323Z,5.78
2022-12-08T00:22:12.497Z,6.15
2022-12-08T00:24:41.060Z,5.47
2022-12-08T00:27:10.283Z,4.75
2022-12-08T00:29:37.285Z,5.53
2022-12-08T00:32:05.189Z,5.78
2022-12-08T00:34:33.197Z,5.03
2022-12-08T00:37:00.316Z,5.65
2022-12-08T00:39:27.373Z,5.28
2022-12-08T00:42:12.617Z,5.80
2022-12-08T00:44:44.052Z,5.70
2022-12-08T00:47:12.457Z,5.47
2022-12-08T00:49:39.449Z,5.72
2022-12-08T00:52:06.717Z,6.38
2022-12-08T00:54:33.678Z,5.75
2022-12-08T00:57:00.680Z,5.90
2022-12-08T00:59:27.753Z,6.35
2022-12-08T01:01:54.817Z,6.65
2022-12-08T01:04:22.168Z,6.18
2022-12-08T01:06:49.380Z,6.15
2022-12-08T01:09:17.764Z,6.13
2022-12-08T01:11:45.448Z,6.25
2022-12-08T01:14:16.099Z,6.28
2022-12-08T01:16:43.916Z,6.47
2022-12-08T01:19:15.618Z,5.93
2022-12-08T01:21:44.325Z,6.28
2022-12-08T01:24:18.820Z,5.95
2022-12-08T01:26:46.437Z,6.47
2022-12-08T01:29:13.857Z,6.35
2022-12-08T01:31:41.021Z,5.68
2022-12-08T01:34:08.856Z,6.30
2022-12-08T01:36:39.481Z,5.97
2022-12-08T01:39:10.776Z,6.18
2022-12-08T01:41:38.871Z,5.63
2022-12-08T01:44:08.930Z,5.28
2022-12-08T01:46:39.317Z,5.25
2022-12-08T01:49:18.130Z,5.17
2022-12-08T01:52:05.295Z,5.65
2022-12-08T01:54:48.962Z,6.00
2022-12-08T01:57:32.617Z,4.97
2022-12-08T03:51:12.946Z,1.75
2022-12-08T03:53:40.031Z,1.45
2022-12-08T03:56:30.019Z,1.70
2022-12-08T03:58:57.161Z,1.80
2022-12-08T04:01:24.682Z,1.70
2022-12-08T04:03:52.200Z,1.75
2022-12-08T04:06:20.551Z,1.23
2022-12-08T04:08:48.320Z,1.30
2022-12-08T04:11:15.341Z,1.30
2022-12-08T04:13:43.285Z,1.00
2022-12-08T04:16:21.043Z,1.67
2022-12-08T04:18:48.503Z,1.63
2022-12-08T04:21:15.683Z,1.30
2022-12-08T04:23:43.169Z,1.00
2022-12-08T04:26:10.357Z,0.75
2022-12-08T04:28:37.572Z,1.30
2022-12-08T04:38:26.151Z,0.77
2022-12-08T17:05:25.380Z,12.57
2022-12-08T17:07:53.478Z,11.85
2022-12-08T17:10:25.257Z,9.88
2022-12-08T17:15:24.564Z,21.30
2022-12-08T17:17:52.308Z,16.02
2022-12-08T17:20:26.164Z,11.55
2022-12-08T17:22:58.204Z,15.88
2022-12-08T17:25:26.819Z,14.15
2022-12-08T17:27:54.280Z,14.57
2022-12-08T17:30:24.005Z,11.35
2022-12-08T17:32:52.921Z,10.05
2022-12-08T17:35:20.198Z,9.32
2022-12-08T17:37:47.810Z,9.20
2022-12-08T17:40:14.768Z,9.48
2022-12-08T17:42:42.481Z,10.75
2022-12-08T17:45:10.073Z,10.43
2022-12-08T17:47:37.511Z,11.00
2022-12-08T17:50:06.630Z,10.10
2022-12-08T17:52:33.957Z,9.13
2022-12-08T17:55:01.195Z,11.25
2022-12-08T17:57:28.213Z,12.43
2022-12-08T17:59:55.344Z,11.27
2022-12-08T18:02:22.441Z,12.27
2022-12-08T18:04:49.492Z,11.23
2022-12-08T18:07:16.621Z,12.02
2022-12-08T18:09:43.603Z,11.00
2022-12-08T18:12:10.609Z,11.73
2022-12-08T18:14:37.613Z,16.33
2022-12-08T18:17:04.731Z,14.75
2022-12-08T18:19:31.934Z,12.30
2022-12-08T18:21:59.078Z,12.60
2022-12-08T18:24:26.110Z,13.07
2022-12-08T18:26:53.383Z,12.68
2022-12-08T18:29:22.780Z,12.77
2022-12-08T18:31:51.554Z,12.82
2022-12-08T18:34:21.811Z,13.35
2022-12-08T18:36:48.929Z,13.68
2022-12-08T18:39:26.123Z,13.10
2022-12-08T18:41:56.460Z,13.10
2022-12-08T18:44:23.620Z,14.15
2022-12-08T18:46:51.994Z,14.57
2022-12-08T18:49:20.770Z,13.73
2022-12-08T18:51:48.310Z,14.15
2022-12-08T18:54:22.022Z,13.30
2022-12-08T18:56:51.846Z,14.07
2022-12-08T18:59:20.607Z,17.73
2022-12-08T19:01:48.308Z,13.43
2022-12-08T19:04:34.681Z,14.95
2022-12-08T19:07:02.340Z,15.82
2022-12-08T19:09:29.600Z,14.75
2022-12-08T19:11:57.016Z,14.90
2022-12-08T19:14:28.219Z,15.55
2022-12-08T19:19:27.193Z,16.25
2022-12-08T19:21:56.529Z,36.22
2022-12-08T19:24:24.534Z,28.35
2022-12-08T19:26:52.109Z,26.67
2022-12-08T19:29:19.147Z,24.85
2022-12-08T19:31:46.791Z,36.78
2022-12-08T19:34:14.518Z,25.02
2022-12-08T19:36:43.063Z,19.48
2022-12-08T19:39:41.456Z,19.50
2022-12-08T19:42:38.506Z,18.35
2022-12-08T19:45:18.548Z,16.70
2022-12-08T19:47:45.704Z,17.40
2022-12-08T19:50:32.984Z,16.80
2022-12-08T19:53:01.116Z,18.08
2022-12-08T19:55:28.897Z,17.25
2022-12-08T19:57:57.262Z,18.38
2022-12-08T20:00:24.870Z,17.35
2022-12-08T20:02:52.264Z,19.35
2022-12-08T20:05:24.676Z,17.48
2022-12-08T20:07:56.245Z,17.83
2022-12-08T20:10:28.328Z,19.02
2022-12-08T20:13:16.451Z,17.35
2022-12-08T20:15:44.836Z,18.88
2022-12-08T20:18:13.246Z,19.08
2022-12-08T20:20:41.451Z,18.95
2022-12-08T20:23:08.642Z,19.20
2022-12-08T20:25:39.962Z,19.60
2022-12-08T20:28:07.739Z,19.73
2022-12-08T20:30:37.852Z,19.25
2022-12-08T20:33:04.884Z,19.10
2022-12-08T20:35:32.140Z,19.75
2022-12-08T20:38:00.274Z,20.63
2022-12-08T20:40:27.362Z,21.17
2022-12-08T20:42:54.422Z,22.67
2022-12-08T20:45:22.124Z,25.17
2022-12-08T20:47:49.282Z,23.38
2022-12-08T20:50:16.688Z,20.42
2022-12-08T20:52:43.968Z,21.65
2022-12-08T20:55:12.049Z,20.95
2022-12-08T20:57:39.221Z,20.40
2022-12-08T21:00:10.830Z,20.45
2022-12-08T21:02:43.237Z,21.02
2022-12-08T21:05:12.380Z,21.77
2022-12-08T21:07:39.473Z,20.92
2022-12-08T21:10:08.116Z,21.73
2022-12-08T21:12:35.331Z,20.48
2022-12-08T21:15:07.383Z,19.50
2022-12-08T21:35:11.533Z,26.80
2022-12-08T21:42:34.317Z,23.58
2022-12-08T21:45:19.410Z,23.83
2022-12-08T22:03:16.337Z,24.67
2022-12-08T22:06:13.105Z,23.70
2022-12-08T22:09:13.487Z,25.23
2022-12-08T22:19:28.418Z,35.35
2022-12-08T22:21:55.512Z,36.25
2022-12-08T22:24:22.674Z,42.75
2022-12-08T22:26:49.918Z,31.55
2022-12-08T22:29:17.136Z,25.38
2022-12-08T22:31:44.302Z,25.67
2022-12-08T22:34:12.041Z,25.30
2022-12-08T22:36:42.666Z,26.50
2022-12-08T22:39:10.480Z,24.17
2022-12-08T22:41:39.951Z,27.27
2022-12-08T22:44:12.835Z,26.13
2022-12-08T22:46:39.991Z,26.17
2022-12-08T22:49:07.162Z,26.25
2022-12-08T22:51:38.727Z,26.73
2022-12-08T22:54:12.848Z,25.05
2022-12-08T22:56:43.970Z,24.50
2022-12-08T22:59:12.224Z,25.08
2022-12-08T23:01:39.255Z,24.88
2022-12-08T23:04:17.455Z,26.83
2022-12-08T23:06:48.972Z,25.83
2022-12-08T23:09:16.172Z,26.15
2022-12-08T23:11:45.464Z,24.90
2022-12-08T23:14:12.527Z,24.65
2022-12-08T23:16:39.827Z,24.98
2022-12-08T23:19:08.981Z,26.25
2022-12-08T23:21:42.235Z,26.83
2022-12-08T23:24:10.350Z,25.33
2022-12-08T23:26:37.696Z,26.50
2022-12-08T23:29:07.896Z,26.30
2022-12-08T23:31:38.477Z,25.80
2022-12-08T23:34:07.660Z,26.13
2022-12-08T23:36:34.852Z,27.30
2022-12-08T23:39:02.126Z,27.58
2022-12-08T23:41:31.344Z,26.08
2022-12-08T23:43:58.474Z,27.50
2022-12-08T23:46:25.676Z,26.63
2022-12-08T23:48:52.811Z,27.45
2022-12-08T23:51:22.946Z,27.27
2022-12-08T23:53:58.146Z,27.08
2022-12-08T23:56:30.034Z,27.25
2022-12-08T23:58:57.576Z,28.25
